Time;durP1;ratioP1;P1;durP2;ratioP2;P2;SDS_P1;SDS_P2;PMS_P1;PMS_P2;Temp;Humidity;BMP_temperature;BMP_pressure;BME280_temperature;BME280_humidity;BME280_pressure;Samples;Min_cycle;Max_cycle;Signal;HPM_P1;HPM_P2
2021/12/20 00:00:12;;;;;;;;;;;;;;;20.98;33.69;99948.56;98481;1400;60991;-82
2021/12/20 00:06:13;;;;;;;;;;;;;;;20.99;33.78;99951.04;98431;1402;74170;-80
2021/12/20 00:09:26;;;;;;;;;;;;;;;20.98;33.78;99949.45;98333;1403;60912;-81
2021/12/20 00:12:37;;;;;;;;;;;;;;;20.98;33.77;99945.86;98524;1392;61380;-81
2021/12/20 00:15:52;;;;;;;;;;;;;;;20.99;33.79;99944.00;98686;1397;71678;-81
2021/12/20 00:18:48;;;;;;;;;;;;;;;;;;;;;
2021/12/20 00:21:45;;;;;;;;;;;;;;;20.99;33.77;99947.27;98883;1393;60497;-80
2021/12/20 00:25:09;;;;;;;;;;;;;;;20.99;33.73;99946.35;98632;1399;61496;-82
2021/12/20 00:28:01;;;;;;;;;;;;;;;;;;;;;
2021/12/20 00:40:42;;;;;;;;;;;;;;;;;;;;;
2021/12/20 00:50:41;;;;;;;;;;;;;;;;;;;;;
2021/12/20 00:53:57;;;;;;;;;;;;;;;;;;;;;
2021/12/20 00:57:14;;;;;;;;;;;;;;;21.00;33.72;99934.80;98941;1386;74438;-81
2021/12/20 01:00:34;;;;;;;;;;;;;;;;;;;;;
2021/12/20 01:04:09;;;;;;;;;;;;;;;21.00;33.82;99937.65;99127;1383;60487;-84
2021/12/20 01:07:11;;;;;;;;;;;;;;;21.00;33.70;99929.80;99113;1382;74222;-82
2021/12/20 01:10:12;;;;;;;;;;;;;;;;;;;;;
2021/12/20 01:13:19;;;;;;;;;;;;;;;;;;;;;
2021/12/20 01:16:51;;;;;;;;;;;;;;;21.01;33.72;99923.30;99180;1390;60558;-81
2021/12/20 01:19:27;;;;;;;;;;;;;;;;;;;;;
2021/12/20 01:22:40;;;;;;;;;;;;;;;21.01;33.72;99918.84;95393;1390;5560084;-81
2021/12/20 01:26:11;;;;;;;;;;;;;;;21.00;33.71;99914.05;99678;1377;61713;-81
2021/12/20 01:28:47;;;;;;;;;;;;;;;;;;;;;
2021/12/20 01:31:56;;;;;;;;;;;;;;;21.00;33.77;99909.80;99617;1384;74392;-81
2021/12/20 01:34:42;;;;;;;;;;;;;;;21.00;33.69;99903.84;99442;1381;74446;-81
2021/12/20 01:41:13;;;;;;;;;;;;;;;;;;;;;
2021/12/20 01:44:56;;;;;;;;;;;;;;;21.00;33.70;99886.70;99436;1381;74270;-82
2021/12/20 01:47:37;;;;;;;;;;;;;;;21.00;33.74;99887.71;99321;1387;72816;-81
2021/12/20 01:51:31;;;;;;;;;;;;;;;21.00;33.73;99887.02;99256;1384;61192;-81
2021/12/20 01:54:11;;;;;;;;;;;;;;;21.01;33.80;99889.16;99511;1378;60556;-81
2021/12/20 01:57:11;;;;;;;;;;;;;;;;;;;;;
2021/12/20 02:00:22;;;;;;;;;;;;;;;21.00;33.67;99880.77;99645;1378;75608;-80
2021/12/20 02:04:01;;;;;;;;;;;;;;;21.01;33.77;99873.73;99543;1383;60513;-81
2021/12/20 02:07:00;;;;;;;;;;;;;;;21.01;33.74;99868.18;99017;1390;62101;-81
2021/12/20 02:10:30;;;;;;;;;;;;;;;21.01;33.72;99859.25;99095;1390;74146;-81
2021/12/20 02:13:09;;;;;;;;;;;;;;;;;;;;;
2021/12/20 02:16:40;;;;;;;;;;;;;;;;;;;;;
2021/12/20 02:19:57;;;;;;;;;;;;;;;21.01;33.65;99876.20;98950;1393;60766;-81
2021/12/20 02:22:46;;;;;;;;;;;;;;;;;;;;;
2021/12/20 02:28:58;;;;;;;;;;;;;;;21.02;33.74;99880.30;98978;1387;60530;-81
2021/12/20 02:42:04;;;;;;;;;;;;;;;21.01;33.70;99878.35;98747;1389;60483;-81
2021/12/20 02:45:09;;;;;;;;;;;;;;;21.01;33.67;99876.40;98861;1386;60594;-81
2021/12/20 02:48:12;;;;;;;;;;;;;;;21.01;33.70;99874.42;99005;1392;72051;-81
2021/12/20 02:51:27;;;;;;;;;;;;;;;21.01;33.62;99879.28;98976;1384;72582;-83
2021/12/20 02:54:34;;;;;;;;;;;;;;;21.01;33.66;99886.20;98612;1396;60544;-82
2021/12/20 02:57:49;;;;;;;;;;;;;;;;;;;;;
2021/12/20 03:00:24;;;;;;;;;;;;;;;;;;;;;
2021/12/20 03:03:46;;;;;;;;;;;;;;;21.02;33.67;99874.51;98713;1397;73975;-81
2021/12/20 03:06:31;;;;;;;;;;;;;;;21.02;33.62;99871.15;98552;1393;61603;-82
2021/12/20 03:09:47;;;;;;;;;;;;;;;;;;;;;
2021/12/20 03:12:55;;;;;;;;;;;;;;;21.02;33.59;99875.59;98094;1399;74763;-82
2021/12/20 03:16:04;;;;;;;;;;;;;;;21.02;33.65;99875.57;97715;1408;72613;-82
2021/12/20 03:18:53;;;;;;;;;;;;;;;21.02;33.63;99867.54;97553;1409;61229;-82
2021/12/20 03:22:00;;;;;;;;;;;;;;;;;;;;;
2021/12/20 03:24:51;;;;;;;;;;;;;;;21.02;33.69;99865.61;97489;1402;72779;-81
2021/12/20 03:28:08;;;;;;;;;;;;;;;;;;;;;
2021/12/20 03:31:13;;;;;;;;;;;;;;;;;;;;;
2021/12/20 03:34:08;;;;;;;;;;;;;;;21.02;33.73;99870.98;97605;1399;61081;-81
2021/12/20 03:37:24;;;;;;;;;;;;;;;21.02;33.64;99869.38;97990;1402;72843;-80
2021/12/20 03:40:14;;;;;;;;;;;;;;;;;;;;;
2021/12/20 03:43:00;;;;;;;;;;;;;;;21.03;33.67;99871.80;98402;1399;60710;-81
2021/12/20 03:46:06;;;;;;;;;;;;;;;21.03;33.65;99879.09;98505;1398;61639;-81
2021/12/20 03:48:51;;;;;;;;;;;;;;;21.03;33.65;99877.98;98910;1393;74001;-82
2021/12/20 03:51:40;;;;;;;;;;;;;;;21.03;33.67;99880.87;98524;1388;72907;-81
2021/12/20 03:54:45;;;;;;;;;;;;;;;;;;;;;
2021/12/20 03:57:31;;;;;;;;;;;;;;;21.03;33.63;99881.95;99231;1384;60602;-79
2021/12/20 04:00:15;;;;;;;;;;;;;;;21.04;33.67;99880.09;99780;1374;72896;-80
2021/12/20 04:03:39;;;;;;;;;;;;;;;21.04;33.68;99880.45;100039;1370;74134;-81
2021/12/20 04:06:32;;;;;;;;;;;;;;;21.04;33.67;99879.73;99967;1374;60418;-81
2021/12/20 04:10:09;;;;;;;;;;;;;;;;;;;;;
2021/12/20 04:13:19;;;;;;;;;;;;;;;;;;;;;
2021/12/20 04:16:03;;;;;;;;;;;;;;;21.04;33.63;99875.77;99271;1383;74151;-81
2021/12/20 04:19:26;;;;;;;;;;;;;;;21.05;33.65;99877.69;99041;1387;60706;-81
2021/12/20 04:22:20;;;;;;;;;;;;;;;;;;;;;
2021/12/20 04:25:27;;;;;;;;;;;;;;;;;;;;;
2021/12/20 04:28:36;;;;;;;;;;;;;;;21.04;33.61;99907.28;98743;1397;73000;-81
2021/12/20 04:31:40;;;;;;;;;;;;;;;;;;;;;
2021/12/20 04:34:50;;;;;;;;;;;;;;;21.04;33.66;99916.91;98975;1387;60688;-81
2021/12/20 04:38:22;;;;;;;;;;;;;;;21.04;33.59;99920.70;98701;1398;72842;-81
2021/12/20 04:40:51;;;;;;;;;;;;;;;21.03;33.57;99923.79;98311;1396;75186;-80
2021/12/20 04:43:46;;;;;;;;;;;;;;;21.03;33.57;99924.15;98446;1399;61343;-81
2021/12/20 04:47:01;;;;;;;;;;;;;;;21.03;33.59;99923.27;98420;1393;60701;-80
2021/12/20 04:49:46;;;;;;;;;;;;;;;21.03;33.61;99928.85;98701;1396;73887;-81
2021/12/20 04:56:14;;;;;;;;;;;;;;;;;;;;;
2021/12/20 04:59:36;;;;;;;;;;;;;;;21.03;33.58;99927.45;98867;1393;60421;-81
2021/12/20 05:02:56;;;;;;;;;;;;;;;21.02;33.59;99936.77;98709;1394;73473;-80
2021/12/20 05:05:28;;;;;;;;;;;;;;;21.02;33.51;99952.05;98674;1392;75147;-81
2021/12/20 05:08:32;;;;;;;;;;;;;;;;;;;;;
2021/12/20 05:14:43;;;;;;;;;;;;;;;;;;;;;
2021/12/20 05:17:29;;;;;;;;;;;;;;;20.97;33.40;99938.45;99354;1384;74263;-81
2021/12/20 05:24:17;;;;;;;;;;;;;;;20.95;33.27;99941.90;98999;1387;60421;-81
2021/12/20 05:27:28;;;;;;;;;;;;;;;20.95;33.15;99943.66;99007;1388;73010;-82
2021/12/20 05:30:17;;;;;;;;;;;;;;;20.96;33.16;99945.39;99027;1380;74234;-81
2021/12/20 05:33:19;;;;;;;;;;;;;;;;;;;;;
2021/12/20 05:36:12;;;;;;;;;;;;;;;20.92;32.99;99963.57;98822;1386;60598;-80
2021/12/20 05:39:07;;;;;;;;;;;;;;;20.87;32.92;99957.80;98704;1389;73935;-80
2021/12/20 05:42:06;;;;;;;;;;;;;;;;;;;;;
2021/12/20 05:44:56;;;;;;;;;;;;;;;;;;;;;
2021/12/20 05:47:47;;;;;;;;;;;;;;;20.66;32.69;99966.25;98881;1387;59434;-81
2021/12/20 05:50:22;;;;;;;;;;;;;;;20.58;32.73;99969.13;98788;1386;73898;-81
2021/12/20 05:52:50;;;;;;;;;;;;;;;20.52;32.69;99967.00;98863;1385;74292;-82
2021/12/20 05:55:16;;;;;;;;;;;;;;;20.46;32.68;99969.64;98874;1386;62416;-81
2021/12/20 05:57:48;;;;;;;;;;;;;;;20.40;32.61;99970.13;98761;1389;59713;-82
2021/12/20 06:00:50;;;;;;;;;;;;;;;20.36;32.70;99971.16;99036;1373;74639;-81
2021/12/20 06:03:15;;;;;;;;;;;;;;;20.33;32.77;99973.38;99213;1374;75940;-82
2021/12/20 06:05:46;;;;;;;;;;;;;;;20.31;32.67;99973.89;99124;1378;59519;-82
2021/12/20 06:08:12;;;;;;;;;;;;;;;20.29;32.61;99973.93;100091;1370;60562;-83
2021/12/20 06:10:38;;;;;;;;;;;;;;;20.25;32.57;99981.89;100372;1363;59654;-81
2021/12/20 06:13:19;;;;;;;;;;;;;;;20.21;32.50;99985.42;100723;1366;60540;-82
2021/12/20 06:15:45;;;;;;;;;;;;;;;20.15;32.44;99996.95;100794;1362;60356;-80
2021/12/20 06:18:22;;;;;;;;;;;;;;;20.09;32.28;99993.84;101014;1360;60487;-80
2021/12/20 06:20:49;;;;;;;;;;;;;;;20.04;32.29;100000.50;101358;1354;72843;-81
2021/12/20 06:23:25;;;;;;;;;;;;;;;19.99;32.18;99997.67;101330;1357;74556;-81
2021/12/20 06:26:00;;;;;;;;;;;;;;;19.94;32.08;100001.66;101364;1355;60391;-81
2021/12/20 06:28:34;;;;;;;;;;;;;;;19.89;31.91;100007.05;101348;1354;60565;-81
2021/12/20 06:31:10;;;;;;;;;;;;;;;19.84;31.76;100006.36;101158;1354;72848;-83
2021/12/20 06:33:48;;;;;;;;;;;;;;;19.79;31.62;100010.66;101290;1354;73841;-81
2021/12/20 06:36:26;;;;;;;;;;;;;;;19.74;31.52;100013.50;101231;1359;60547;-81
2021/12/20 06:39:01;;;;;;;;;;;;;;;19.69;31.38;100013.01;101306;1358;60457;-82
2021/12/20 06:41:26;;;;;;;;;;;;;;;19.66;31.50;100011.84;101423;1356;72582;-81
2021/12/20 06:44:02;;;;;;;;;;;;;;;19.65;31.57;100012.09;101413;1354;73833;-81
2021/12/20 06:46:37;;;;;;;;;;;;;;;19.64;31.49;100016.45;102037;1354;60364;-81
2021/12/20 06:49:05;;;;;;;;;;;;;;;19.64;31.47;100007.02;101424;1356;61027;-81
2021/12/20 06:51:33;;;;;;;;;;;;;;;19.63;31.51;100011.00;102143;1353;73650;-82
2021/12/20 06:53:59;;;;;;;;;;;;;;;19.62;31.34;100014.48;101384;1356;75201;-81
2021/12/20 06:56:37;;;;;;;;;;;;;;;19.60;31.50;100019.93;101433;1357;60280;-82
2021/12/20 06:59:16;;;;;;;;;;;;;;;19.60;31.56;100022.48;101355;1359;59223;-83
2021/12/20 07:01:42;;;;;;;;;;;;;;;19.60;31.63;100022.98;101444;1355;73016;-81
2021/12/20 07:04:08;;;;;;;;;;;;;;;19.60;31.65;100024.75;101247;1357;60458;-81
2021/12/20 07:06:33;;;;;;;;;;;;;;;19.63;31.79;100024.98;101102;1354;59431;-80
2021/12/20 07:08:59;;;;;;;;;;;;;;;19.66;31.90;100023.78;101021;1357;60917;-80
2021/12/20 07:11:45;;;;;;;;;;;;;;;;;;;;;
2021/12/20 07:14:20;;;;;;;;;;;;;;;19.79;31.97;100025.84;102130;1354;75088;-81
2021/12/20 07:16:55;;;;;;;;;;;;;;;19.85;31.95;100023.58;102200;1355;60671;-80
2021/12/20 07:19:20;;;;;;;;;;;;;;;19.92;32.00;100024.02;102167;1355;61419;-80
2021/12/20 07:21:46;;;;;;;;;;;;;;;19.98;32.07;100029.04;101969;1356;58582;-81
2021/12/20 07:24:11;;;;;;;;;;;;;;;20.04;32.04;100030.89;102201;1354;58896;-81
2021/12/20 07:26:37;;;;;;;;;;;;;;;20.10;32.06;100035.80;102199;1357;58669;-81
2021/12/20 07:29:03;;;;;;;;;;;;;;;20.15;32.09;100044.48;102152;1357;58968;-81
2021/12/20 07:31:28;;;;;;;;;;;;;;;20.20;31.97;100043.73;102100;1357;61257;-81
2021/12/20 07:33:57;;;;;;;;;;;;;;;20.24;32.03;100044.98;101538;1353;59376;-80
2021/12/20 07:36:22;;;;;;;;;;;;;;;20.30;32.02;100044.61;101428;1354;74726;-80
2021/12/20 07:38:48;;;;;;;;;;;;;;;20.33;31.87;100039.32;101328;1357;59679;-80
2021/12/20 07:41:22;;;;;;;;;;;;;;;20.35;31.88;100036.08;101373;1356;60477;-80
2021/12/20 07:43:50;;;;;;;;;;;;;;;20.39;31.83;100035.44;101179;1354;72678;-80
2021/12/20 07:46:16;;;;;;;;;;;;;;;20.41;31.80;100039.39;101002;1353;74068;-79
2021/12/20 07:48:42;;;;;;;;;;;;;;;20.43;31.82;100046.34;102077;1356;58613;-80
2021/12/20 07:51:07;;;;;;;;;;;;;;;20.46;31.64;100041.48;101813;1353;59496;-80
2021/12/20 07:53:48;;;;;;;;;;;;;;;20.47;31.63;100032.63;101861;1354;58673;-83
2021/12/20 07:56:16;;;;;;;;;;;;;;;20.47;31.64;100033.74;102218;1354;74218;-81
2021/12/20 07:58:45;;;;;;;;;;;;;;;20.44;31.65;100034.52;101664;1353;60602;-84
2021/12/20 08:01:17;;;;;;;;;;;;;;;20.38;31.56;100037.48;101324;1353;60444;-82
2021/12/20 08:03:48;;;;;;;;;;;;;;;20.33;31.55;100053.60;101351;1354;59356;-82
2021/12/20 08:06:35;;;;;;;;;;;;;;;20.28;31.72;100069.02;101338;1353;73650;-82
2021/12/20 08:09:07;;;;;;;;;;;;;;;20.20;31.66;100078.16;101116;1353;60346;-82
2021/12/20 08:11:47;;;;;;;;;;;;;;;20.16;31.61;100084.09;101167;1354;59415;-80
2021/12/20 08:14:13;;;;;;;;;;;;;;;20.10;31.53;100089.51;101068;1354;60699;-83
2021/12/20 08:16:41;;;;;;;;;;;;;;;20.06;31.53;100096.77;101490;1354;60712;-78
2021/12/20 08:19:07;;;;;;;;;;;;;;;20.05;31.60;100101.50;101017;1357;60369;-80
2021/12/20 08:21:38;;;;;;;;;;;;;;;20.06;31.40;100108.60;101155;1353;59336;-81
2021/12/20 08:24:23;;;;;;;;;;;;;;;20.10;31.30;100125.64;101070;1358;72641;-80
2021/12/20 08:26:49;;;;;;;;;;;;;;;20.15;31.40;100144.73;101285;1356;73227;-81
2021/12/20 08:29:30;;;;;;;;;;;;;;;20.19;31.28;100145.09;101432;1355;61043;-82
2021/12/20 08:31:59;;;;;;;;;;;;;;;20.25;31.29;100134.45;101623;1346;61612;-79
2021/12/20 08:34:28;;;;;;;;;;;;;;;20.29;31.16;100130.42;102803;1348;71767;-82
2021/12/20 08:36:55;;;;;;;;;;;;;;;20.33;31.35;100139.23;101930;1348;75169;-79
2021/12/20 08:40:10;;;;;;;;;;;;;;;20.38;31.49;100153.98;101879;1348;59186;-82
2021/12/20 08:45:35;;;;;;;;;;;;;;;20.49;31.42;100146.74;102797;1348;72068;-82
2021/12/20 08:48:00;;;;;;;;;;;;;;;20.52;31.46;100144.49;102671;1351;58395;-82
2021/12/20 08:50:27;;;;;;;;;;;;;;;20.55;31.42;100145.87;102750;1348;58421;-82
2021/12/20 08:52:52;;;;;;;;;;;;;;;20.58;31.54;100150.13;102080;1348;58890;-81
2021/12/20 08:55:24;;;;;;;;;;;;;;;20.56;31.52;100158.85;101939;1346;60485;-82
2021/12/20 08:58:12;;;;;;;;;;;;;;;20.41;31.18;100153.75;101889;1348;75933;-81
2021/12/20 09:00:36;;;;;;;;;;;;;;;20.22;31.30;100159.85;101977;1345;60629;-81
2021/12/20 09:03:02;;;;;;;;;;;;;;;20.07;31.07;100167.84;101895;1348;60520;-82
2021/12/20 09:05:33;;;;;;;;;;;;;;;19.99;31.18;100167.94;101894;1348;72753;-82
2021/12/20 09:08:01;;;;;;;;;;;;;;;20.00;31.26;100168.58;101952;1346;75132;-82
2021/12/20 09:10:36;;;;;;;;;;;;;;;20.03;31.41;100172.27;101936;1348;63313;-82
2021/12/20 09:13:18;;;;;;;;;;;;;;;20.09;31.59;100172.47;101946;1352;61091;-82
2021/12/20 09:15:44;;;;;;;;;;;;;;;20.15;31.55;100170.09;101921;1347;59403;-82
2021/12/20 09:18:27;;;;;;;;;;;;;;;20.21;31.57;100186.77;101913;1347;75445;-81
2021/12/20 09:20:57;;;;;;;;;;;;;;;20.27;31.60;100196.31;101878;1348;61108;-80
2021/12/20 09:23:31;;;;;;;;;;;;;;;20.32;31.57;100199.36;101683;1348;323472;-80
2021/12/20 09:26:00;;;;;;;;;;;;;;;20.34;31.66;100198.98;101602;1346;71872;-80
2021/12/20 09:28:33;;;;;;;;;;;;;;;20.36;31.68;100198.79;101615;1348;73384;-81
2021/12/20 09:31:44;;;;;;;;;;;;;;;20.40;31.52;100194.91;101933;1347;61021;-80
2021/12/20 09:38:08;;;;;;;;;;;;;;;20.42;31.54;100192.12;101442;1355;71520;-82
2021/12/20 09:40:51;;;;;;;;;;;;;;;20.39;31.49;100192.73;102211;1353;75057;-82
2021/12/20 09:43:17;;;;;;;;;;;;;;;20.38;31.76;100199.21;102324;1354;60147;-80
2021/12/20 09:45:43;;;;;;;;;;;;;;;20.33;31.52;100203.75;102318;1354;58522;-81
2021/12/20 09:51:40;;;;;;;;;;;;;;;20.23;31.51;100205.73;102255;1354;71499;-83
2021/12/20 09:54:23;;;;;;;;;;;;;;;20.07;31.38;100205.38;102012;1354;58489;-81
2021/12/20 09:57:08;;;;;;;;;;;;;;;19.80;31.31;100206.61;102123;1356;59446;-81
2021/12/20 09:59:33;;;;;;;;;;;;;;;19.63;31.59;100202.05;102346;1354;72790;-80
2021/12/20 10:01:59;;;;;;;;;;;;;;;19.64;31.70;100202.48;102300;1353;58830;-81
2021/12/20 10:04:33;;;;;;;;;;;;;;;19.62;31.84;100206.00;102299;1351;58528;-81
2021/12/20 10:07:02;;;;;;;;;;;;;;;19.61;31.83;100205.53;102346;1358;61426;-80
2021/12/20 10:09:32;;;;;;;;;;;;;;;19.68;31.89;100207.00;102207;1354;71808;-81
2021/12/20 10:12:09;;;;;;;;;;;;;;;19.75;31.84;100210.91;102608;1352;74712;-83
2021/12/20 10:14:53;;;;;;;;;;;;;;;19.83;31.84;100215.02;102724;1351;60889;-82
2021/12/20 10:17:21;;;;;;;;;;;;;;;19.85;31.84;100220.21;102737;1352;60158;-82
2021/12/20 10:19:47;;;;;;;;;;;;;;;19.86;31.76;100223.03;102702;1348;71857;-80
2021/12/20 10:22:24;;;;;;;;;;;;;;;19.83;31.76;100229.63;102569;1347;58600;-80
2021/12/20 10:24:50;;;;;;;;;;;;;;;19.81;31.67;100235.54;101803;1351;61173;-81
2021/12/20 10:27:32;;;;;;;;;;;;;;;19.76;31.71;100238.68;101905;1348;60710;-79
2021/12/20 10:30:25;;;;;;;;;;;;;;;19.77;31.68;100240.22;101667;1347;72936;-81
2021/12/20 10:32:53;;;;;;;;;;;;;;;19.66;31.55;100234.13;101398;1350;73362;-80
2021/12/20 10:35:30;;;;;;;;;;;;;;;19.59;31.66;100231.69;101774;1347;60463;-80
2021/12/20 10:37:56;;;;;;;;;;;;;;;19.39;31.27;100238.58;101708;1354;60424;-81
2021/12/20 10:40:22;;;;;;;;;;;;;;;19.21;31.44;100244.86;101893;1347;73795;-80
2021/12/20 10:42:53;;;;;;;;;;;;;;;19.19;31.63;100247.98;101373;1350;60383;-81
2021/12/20 10:45:33;;;;;;;;;;;;;;;;;;;;;
2021/12/20 10:48:07;;;;;;;;;;;;;;;19.32;31.70;100257.46;102557;1348;60615;-79
2021/12/20 10:50:44;;;;;;;;;;;;;;;19.18;31.62;100260.23;102025;1352;73052;-83
2021/12/20 10:53:18;;;;;;;;;;;;;;;19.01;31.67;100259.67;101712;1351;74120;-81
2021/12/20 10:55:52;;;;;;;;;;;;;;;18.84;31.82;100254.73;101882;1348;61014;-82
2021/12/20 10:58:38;;;;;;;;;;;;;;;18.82;31.87;100253.13;101928;1348;60209;-81
2021/12/20 11:01:06;;;;;;;;;;;;;;;18.60;31.76;100263.55;102670;1349;74166;-82
2021/12/20 11:03:40;;;;;;;;;;;;;;;18.19;31.64;100265.05;102664;1347;72699;-83
2021/12/20 11:09:13;;;;;;;;;;;;;;;18.03;32.43;100263.65;102515;1352;60283;-81
2021/12/20 11:11:55;;;;;;;;;;;;;;;18.21;32.46;100258.68;102615;1349;73095;-82
2021/12/20 11:14:50;;;;;;;;;;;;;;;18.37;32.53;100257.83;101992;1348;72729;-79
2021/12/20 11:17:20;;;;;;;;;;;;;;;18.53;32.49;100258.66;101089;1351;60122;-80
2021/12/20 11:19:49;;;;;;;;;;;;;;;18.60;32.48;100264.83;101307;1353;60916;-81
2021/12/20 11:22:29;;;;;;;;;;;;;;;18.64;32.51;100265.98;101609;1353;71717;-82
2021/12/20 11:24:56;;;;;;;;;;;;;;;18.63;32.46;100270.14;101386;1354;75346;-84
2021/12/20 11:27:23;;;;;;;;;;;;;;;18.49;32.32;100266.95;101502;1354;61114;-82
2021/12/20 11:29:52;;;;;;;;;;;;;;;18.44;32.53;100270.55;101561;1358;60425;-81
2021/12/20 11:32:21;;;;;;;;;;;;;;;18.52;32.55;100272.80;102091;1354;73703;-79
2021/12/20 11:34:49;;;;;;;;;;;;;;;18.63;32.59;100277.42;102099;1357;74955;-79
2021/12/20 11:37:15;;;;;;;;;;;;;;;18.72;32.68;100279.84;102048;1354;60171;-82
2021/12/20 11:39:41;;;;;;;;;;;;;;;18.81;32.76;100281.17;101399;1354;58857;-81
2021/12/20 11:42:07;;;;;;;;;;;;;;;18.85;32.67;100286.95;101452;1354;59505;-81
2021/12/20 11:44:33;;;;;;;;;;;;;;;18.73;32.69;100278.69;101502;1357;59396;-81
2021/12/20 11:47:04;;;;;;;;;;;;;;;18.77;32.82;100280.21;101648;1353;59257;-81
2021/12/20 11:49:29;;;;;;;;;;;;;;;18.86;32.86;100284.23;102244;1358;60609;-82
2021/12/20 11:51:55;;;;;;;;;;;;;;;18.91;32.95;100296.91;102181;1355;59547;-81
2021/12/20 11:54:39;;;;;;;;;;;;;;;18.92;32.95;100298.08;102569;1349;58685;-82
2021/12/20 11:57:04;;;;;;;;;;;;;;;18.82;32.74;100301.05;102744;1348;61178;-82
2021/12/20 11:59:49;;;;;;;;;;;;;;;18.82;33.00;100313.04;102591;1349;58956;-81
2021/12/20 12:02:21;;;;;;;;;;;;;;;18.87;32.95;100323.39;102541;1348;73869;-81
2021/12/20 12:05:21;;;;;;;;;;;;;;;18.93;32.83;100324.23;102709;1348;74050;-82
2021/12/20 12:07:47;;;;;;;;;;;;;;;19.01;32.93;100327.44;102426;1351;60379;-81
2021/12/20 12:10:13;;;;;;;;;;;;;;;19.07;32.73;100329.11;102617;1348;58562;-81
2021/12/20 12:12:42;;;;;;;;;;;;;;;19.14;32.88;100333.84;102537;1352;58709;-83
2021/12/20 12:15:09;;;;;;;;;;;;;;;19.22;32.92;100334.48;102713;1348;75120;-81
2021/12/20 12:17:54;;;;;;;;;;;;;;;19.32;32.88;100336.33;102687;1348;60478;-82
2021/12/20 12:20:50;;;;;;;;;;;;;;;19.36;32.92;100338.17;102707;1348;61056;-82
2021/12/20 12:23:36;;;;;;;;;;;;;;;19.30;32.81;100349.47;101978;1347;73840;-81
2021/12/20 12:26:05;;;;;;;;;;;;;;;19.26;32.82;100344.05;101539;1354;73669;-81
2021/12/20 12:28:55;;;;;;;;;;;;;;;19.22;32.77;100346.77;101543;1354;60269;-81
2021/12/20 12:31:20;;;;;;;;;;;;;;;19.22;32.73;100348.62;101557;1357;61451;-81
2021/12/20 12:34:07;;;;;;;;;;;;;;;19.21;32.79;100350.42;101676;1358;73848;-81
2021/12/20 12:36:40;;;;;;;;;;;;;;;19.22;32.87;100355.92;101520;1358;74938;-81
2021/12/20 12:39:21;;;;;;;;;;;;;;;19.24;32.82;100359.39;101534;1357;61434;-81
2021/12/20 12:42:05;;;;;;;;;;;;;;;19.24;32.84;100367.02;102472;1354;61796;-82
2021/12/20 12:44:31;;;;;;;;;;;;;;;19.24;32.81;100378.77;101512;1358;74201;-81
2021/12/20 12:47:00;;;;;;;;;;;;;;;19.25;32.75;100386.94;101439;1351;74739;-81
2021/12/20 12:49:32;;;;;;;;;;;;;;;19.23;32.78;100388.14;101633;1354;62205;-80
2021/12/20 12:51:58;;;;;;;;;;;;;;;19.21;32.66;100385.95;102314;1354;60570;-81
2021/12/20 12:54:33;;;;;;;;;;;;;;;19.20;32.75;100391.55;102445;1356;60075;-81
2021/12/20 12:57:10;;;;;;;;;;;;;;;19.19;32.80;100391.99;102103;1359;74593;-82
2021/12/20 12:59:37;;;;;;;;;;;;;;;19.19;32.98;100392.02;102553;1357;60116;-82
2021/12/20 13:02:12;;;;;;;;;;;;;;;19.18;32.95;100387.04;102553;1354;60342;-82
2021/12/20 13:04:50;;;;;;;;;;;;;;;19.17;32.87;100385.00;102691;1348;75151;-82
2021/12/20 13:07:16;;;;;;;;;;;;;;;19.13;32.88;100382.95;102781;1352;74868;-81
2021/12/20 13:09:44;;;;;;;;;;;;;;;19.12;32.85;100380.73;102808;1348;59072;-81
2021/12/20 13:12:19;;;;;;;;;;;;;;;19.14;32.88;100388.23;102862;1345;60589;-81
2021/12/20 13:14:58;;;;;;;;;;;;;;;19.17;32.96;100393.93;102847;1348;72624;-81
2021/12/20 13:17:28;;;;;;;;;;;;;;;19.20;32.93;100396.53;102825;1354;74645;-80
2021/12/20 13:20:06;;;;;;;;;;;;;;;19.23;32.74;100396.33;102755;1351;62646;-80
2021/12/20 13:22:32;;;;;;;;;;;;;;;19.25;32.67;100394.61;102832;1349;60257;-80
2021/12/20 13:24:58;;;;;;;;;;;;;;;19.24;32.57;100395.17;102761;1355;59579;-81
2021/12/20 13:27:28;;;;;;;;;;;;;;;19.23;32.45;100398.84;102054;1354;61850;-80
2021/12/20 13:30:04;;;;;;;;;;;;;;;19.25;32.50;100405.98;101330;1352;61276;-80
2021/12/20 13:32:39;;;;;;;;;;;;;;;19.25;32.28;100414.92;101478;1348;61558;-80
2021/12/20 13:35:22;;;;;;;;;;;;;;;19.25;32.14;100421.54;101467;1354;73946;-82
2021/12/20 13:38:08;;;;;;;;;;;;;;;19.26;32.04;100427.56;101440;1348;75940;-80
2021/12/20 13:41:19;;;;;;;;;;;;;;;19.22;31.99;100428.49;101487;1347;61611;-80
2021/12/20 13:47:38;;;;;;;;;;;;;;;19.18;31.95;100443.44;100209;1369;71481;-81
2021/12/20 13:50:49;;;;;;;;;;;;;;;19.16;31.94;100447.84;100174;1370;74826;-80
2021/12/20 13:53:28;;;;;;;;;;;;;;;;;;;;;
2021/12/20 13:56:02;;;;;;;;;;;;;;;19.12;31.85;100452.08;101467;1371;61763;-81
2021/12/20 13:58:54;;;;;;;;;;;;;;;19.10;31.89;100457.37;100252;1369;62379;-81
2021/12/20 14:01:33;;;;;;;;;;;;;;;19.08;31.89;100463.76;99495;1372;74725;-81
2021/12/20 14:04:05;;;;;;;;;;;;;;;19.05;31.90;100460.91;99608;1369;61526;-79
2021/12/20 14:07:04;;;;;;;;;;;;;;;;;;;;;
2021/12/20 14:09:56;;;;;;;;;;;;;;;19.02;32.02;100460.23;99680;1375;72954;-79
2021/12/20 14:15:59;;;;;;;;;;;;;;;18.99;31.89;100468.13;99815;1375;61285;-80
2021/12/20 14:19:36;;;;;;;;;;;;;;;;;;;;;
2021/12/20 14:22:00;;;;;;;;;;;;;;;18.96;31.80;100473.30;100896;1372;73650;-81
2021/12/20 14:24:53;;;;;;;;;;;;;;;18.95;31.84;100473.34;101130;1366;61381;-79
2021/12/20 14:27:43;;;;;;;;;;;;;;;;;;;;;
2021/12/20 14:31:05;;;;;;;;;;;;;;;19.03;31.77;100483.55;100970;1366;61477;-81
2021/12/20 14:34:14;;;;;;;;;;;;;;;19.09;31.68;100498.27;100528;1369;71520;-79
2021/12/20 14:37:47;;;;;;;;;;;;;;;19.18;31.57;100503.04;100011;1371;73583;-79
2021/12/20 14:40:45;;;;;;;;;;;;;;;;;;;;;
2021/12/20 14:44:01;;;;;;;;;;;;;;;;;;;;;
2021/12/20 14:47:26;;;;;;;;;;;;;;;;;;;;;
2021/12/20 14:50:44;;;;;;;;;;;;;;;19.37;31.62;100525.31;99280;1387;73542;-81
2021/12/20 14:57:56;;;;;;;;;;;;;;;19.47;31.69;100533.55;98799;1393;61142;-82
2021/12/20 15:00:28;;;;;;;;;;;;;;;19.53;31.59;100549.58;98660;1395;72754;-82
2021/12/20 15:03:58;;;;;;;;;;;;;;;19.57;31.64;100570.30;98485;1399;74020;-81
2021/12/20 15:07:05;;;;;;;;;;;;;;;19.62;31.73;100571.45;98601;1396;61743;-81
2021/12/20 15:17:23;;;;;;;;;;;;;;;19.71;31.96;100582.75;97451;1405;76410;-82
2021/12/20 15:20:53;;;;;;;;;;;;;;;19.74;31.98;100582.91;97023;1416;61393;-81
2021/12/20 15:24:01;;;;;;;;;;;;;;;19.77;32.02;100599.48;96998;1414;61931;-81
2021/12/20 15:27:17;;;;;;;;;;;;;;;;;;;;;
2021/12/20 15:31:09;;;;;;;;;;;;;;;19.82;32.20;100596.01;97402;1411;73758;-81
2021/12/20 15:33:59;;;;;;;;;;;;;;;19.83;32.23;100598.55;97540;1407;61501;-81
2021/12/20 15:44:02;;;;;;;;;;;;;;;;;;;;;
2021/12/20 15:47:12;;;;;;;;;;;;;;;19.90;32.61;100605.20;96713;1413;61850;-82
2021/12/20 15:50:49;;;;;;;;;;;;;;;;;;;;;
2021/12/20 15:54:23;;;;;;;;;;;;;;;19.93;32.83;100602.92;96840;1409;73927;-81
2021/12/20 16:00:33;;;;;;;;;;;;;;;;;;;;;
2021/12/20 16:03:55;;;;;;;;;;;;;;;;;;;;;
2021/12/20 16:06:40;;;;;;;;;;;;;;;;;;;;;
2021/12/20 16:16:58;;;;;;;;;;;;;;;;;;;;;
2021/12/20 16:20:14;;;;;;;;;;;;;;;20.01;33.20;100621.83;99111;1383;73096;-82
2021/12/20 16:23:13;;;;;;;;;;;;;;;;;;;;;
2021/12/20 16:26:20;;;;;;;;;;;;;;;20.02;33.28;100624.75;99788;1378;61681;-83
2021/12/20 16:29:38;;;;;;;;;;;;;;;20.03;33.36;100627.94;99768;1374;62073;-82
2021/12/20 16:32:57;;;;;;;;;;;;;;;;;;;;;
2021/12/20 16:36:03;;;;;;;;;;;;;;;20.05;33.52;100633.67;100294;1376;77874;-83
2021/12/20 16:39:27;;;;;;;;;;;;;;;20.06;33.44;100638.80;100273;1371;61619;-82
2021/12/20 16:42:16;;;;;;;;;;;;;;;20.07;33.62;100646.24;100692;1371;61284;-82
2021/12/20 16:45:03;;;;;;;;;;;;;;;20.08;33.50;100646.19;100307;1376;74001;-82
2021/12/20 16:48:18;;;;;;;;;;;;;;;;;;;;;
2021/12/20 16:51:15;;;;;;;;;;;;;;;;;;;;;
2021/12/20 16:54:58;;;;;;;;;;;;;;;20.09;33.67;100659.14;99533;1378;61701;-82
2021/12/20 17:01:34;;;;;;;;;;;;;;;;;;;;;
2021/12/20 17:08:07;;;;;;;;;;;;;;;;;;;;;
2021/12/20 17:17:33;;;;;;;;;;;;;;;20.15;33.88;100669.13;98006;1404;61364;-82